Details From LFOE - FAUVILLE
To LFQB - Troyes Barberey
Flight Number -
Tags generated
Created
Modified
Stats Distance 119 nm / 220 km
Max Altitude 2,600 ft / 792 m
Waypoints 3
Social Downloads 0
Likes 0
Share VATSIM

Download

Looking for another format? Having issues loading an existing format? Contact us
Advertisement - Login to hide

Notes

Basic altitude profile: - Ascent Rate: 2500ft/min - Ascent Speed: 250kts - Cruise Altitude: 200ft - Cruise Speed: 270kts - Descent Rate: 1500ft/min - Descent Speed: 270kts Options: - Use NATs: yes - Use PACOTS: yes - Use low airways: yes - Use high airways: yes

Route

LFOE INKAK LFQB

ID Type Via Altitude Latitude Longitude Leg Dist Tot Dist Heading (true) Name
O LFOE APT - 0 ft / 0 m 49.02867˚ 1.21987˚ - 0 nm - FAUVILLE
INKAK FIX - 2,600 ft / 792 m 48.39972˚ 3.72861˚ 106 nm 106 nm 110° / 112° -
O LFQB APT - 0 ft / 0 m 48.32088˚ 4.01385˚ 12 nm 118 nm 112° / 113° Troyes Barberey

Altitude Profile

Advertisement - Login to hide

LFOE

Details ICAO LFOE
Name FAUVILLE
Region France
Timezone Europe/Paris (UTC+1.0)
Stats Elevation 464 ft / 141 m (AMSL)
Location 49.028669° 1.219866°
Runways 1
Magnetic Variation 0.225° E

METAR

LFOE 140230Z AUTO 25013KT CAVOK 05/01 Q1001

Decode

TAF

TAF LFOE 140200Z 1403/1503 26015G30KT 9999 SCT020 TEMPO 1403/1405 28025G50KT BECMG 1405/1408 20015G30KT SCT025TCU TEMPO 1408/1421 23025G45KT 3000 TSRA SCT010 BKN020CB BECMG 1421/1423 4000 SHRA SCT008 BKN015TCU

Decode

Departure Runways

ID Width Length Bearing (true) Bearing (mag) Surface Threshold Offset Overrun Length
04 148 ft / 45 m 9,836 ft / 2,998 m 39.78° 39.55° Asphalt 0 ft / 0 m 0 ft / 0 m
22 148 ft / 45 m 9,836 ft / 2,998 m 219.80° 219.57° Asphalt 0 ft / 0 m 0 ft / 0 m

LFQB

Details ICAO LFQB (QYR)
Name Troyes Barberey
Region France
Timezone Europe/Paris (UTC+1.0)
Stats Elevation 388 ft / 118 m (AMSL)
Location 48.320883° 4.013846°
Runways 3
Magnetic Variation 1.108° E

METAR

LFQB 140230Z AUTO 27022KT CAVOK 07/02 Q1002

Decode

TAF

Not found

Destination Runways

ID Width Length Bearing (true) Bearing (mag) Surface Threshold Offset Overrun Length
05 328 ft / 100 m 2,651 ft / 808 m 51.53° 50.42° Grass 426 ft / 130 m 0 ft / 0 m
18 98 ft / 30 m 5,413 ft / 1,650 m 173.77° 172.66° Asphalt 0 ft / 0 m 0 ft / 0 m
18R 328 ft / 100 m 2,958 ft / 902 m 173.74° 172.63° Grass 0 ft / 0 m 0 ft / 0 m
23 328 ft / 100 m 2,651 ft / 808 m 231.53° 230.42° Grass 0 ft / 0 m 0 ft / 0 m
36 98 ft / 30 m 5,413 ft / 1,650 m 353.77° 352.66° Asphalt 377 ft / 115 m 0 ft / 0 m
36L 328 ft / 100 m 2,958 ft / 902 m 353.74° 352.63° Grass 0 ft / 0 m 0 ft / 0 m

Approach Navaids

Runway Type Ident Frequency Range Bearing (true) Bearing (mag) Slope Elevation
18 Localiser TY 111.15 MHz 18 nm / 33 km 173.77° 172.66° - 388 ft / 118 m (AMSL)
18 Glidescope TY 111.15 MHz 10 nm / 19 km 173.77° 172.66° 3.50° 388 ft / 118 m (AMSL)
18 DME TY 111.15 MHz 18 nm / 33 km - - - 388 ft / 118 m (AMSL)

Popular Alternatives